createdAt,value
2019-04-06T00:01:30.566Z,27.57
2019-04-06T00:04:02.983Z,30.40
2019-04-06T00:06:35.312Z,27.90
2019-04-06T00:09:08.245Z,27.80
2019-04-06T00:11:41.370Z,32.23
2019-04-06T00:14:13.337Z,27.77
2019-04-06T00:16:45.316Z,29.33
2019-04-06T00:19:17.266Z,30.00
2019-04-06T00:21:49.244Z,26.53
2019-04-06T00:24:21.378Z,29.20
2019-04-06T00:26:52.939Z,29.67
2019-04-06T00:29:25.380Z,26.33
2019-04-06T00:32:10.584Z,30.73
2019-04-06T00:34:42.527Z,28.97
2019-04-06T00:37:14.967Z,28.97
2019-04-06T00:39:46.886Z,29.67
2019-04-06T00:42:18.770Z,30.83
2019-04-06T00:44:50.745Z,31.03
2019-04-06T00:47:23.055Z,33.43
2019-04-06T00:49:55.471Z,29.70
2019-04-06T00:52:27.330Z,30.47
2019-04-06T00:55:00.071Z,30.50
2019-04-06T00:57:33.941Z,28.43
2019-04-06T01:00:06.324Z,29.00
2019-04-06T01:02:38.243Z,30.33
2019-04-06T01:05:11.604Z,29.17
2019-04-06T01:07:43.565Z,28.67
2019-04-06T01:10:16.330Z,26.33
2019-04-06T01:12:48.654Z,25.90
2019-04-06T01:15:21.316Z,23.70
2019-04-06T01:17:54.158Z,26.47
2019-04-06T01:20:26.095Z,25.70
2019-04-06T01:22:57.953Z,25.60
2019-04-06T01:25:29.804Z,25.77
2019-04-06T01:28:01.619Z,27.90
2019-04-06T01:30:33.510Z,30.23
2019-04-06T01:33:05.808Z,31.53
2019-04-06T01:35:37.676Z,29.50
2019-04-06T01:38:09.652Z,29.03
2019-04-06T01:40:41.950Z,28.77
2019-04-06T01:43:14.432Z,30.33
2019-04-06T01:45:46.762Z,31.50
2019-04-06T01:48:24.656Z,28.87
2019-04-06T01:50:56.541Z,26.23
2019-04-06T01:53:28.389Z,25.23
2019-04-06T01:56:00.370Z,27.73
2019-04-06T01:58:33.269Z,28.30
2019-04-06T02:01:16.282Z,27.50
2019-04-06T02:03:48.183Z,31.27
2019-04-06T02:06:20.057Z,28.83
2019-04-06T02:08:52.556Z,30.77
2019-04-06T02:11:25.053Z,29.90
2019-04-06T02:13:56.950Z,32.63
2019-04-06T02:16:29.910Z,29.80
2019-04-06T02:19:02.263Z,30.33
2019-04-06T02:21:34.197Z,32.97
2019-04-06T02:24:06.649Z,32.03
2019-04-06T02:26:38.539Z,31.83
2019-04-06T02:29:10.447Z,35.27
2019-04-06T02:32:07.643Z,31.80
2019-04-06T02:35:01.135Z,31.43
2019-04-06T02:38:01.057Z,33.77
2019-04-06T02:40:44.132Z,32.77
2019-04-06T02:43:24.907Z,31.90
2019-04-06T02:45:56.786Z,35.57
2019-04-06T02:48:30.333Z,34.23
2019-04-06T02:51:02.912Z,34.27
2019-04-06T02:53:35.290Z,34.20
2019-04-06T02:56:07.577Z,32.63
2019-04-06T02:58:39.829Z,31.10
2019-04-06T03:01:11.711Z,34.33
2019-04-06T03:03:43.883Z,31.60
2019-04-06T03:06:16.123Z,29.40
2019-04-06T03:08:48.533Z,34.17
2019-04-06T03:11:20.450Z,31.20
2019-04-06T03:13:53.576Z,31.07
2019-04-06T03:16:25.542Z,32.83
2019-04-06T03:18:57.909Z,31.13
2019-04-06T03:21:30.097Z,29.93
2019-04-06T03:24:02.031Z,31.90
2019-04-06T03:26:34.419Z,32.37
2019-04-06T03:29:24.805Z,30.13
2019-04-06T03:31:57.211Z,30.93
2019-04-06T03:34:30.333Z,29.33
2019-04-06T03:37:02.279Z,30.97
2019-04-06T03:39:35.614Z,32.30
2019-04-06T03:42:11.094Z,29.87
2019-04-06T03:44:42.542Z,30.33
2019-04-06T03:47:16.016Z,32.20
2019-04-06T03:49:48.709Z,29.23
2019-04-06T03:52:20.684Z,28.03
2019-04-06T03:54:53.030Z,32.00
2019-04-06T03:57:25.361Z,28.43
2019-04-06T03:59:57.226Z,29.00
2019-04-06T04:02:29.314Z,27.33
2019-04-06T04:05:01.768Z,28.93
2019-04-06T04:07:33.696Z,27.60
2019-04-06T04:10:07.043Z,24.40
2019-04-06T04:12:39.029Z,28.03
2019-04-06T04:15:10.803Z,26.47
2019-04-06T04:17:43.100Z,24.97
2019-04-06T04:20:15.612Z,27.13
2019-04-06T04:22:47.618Z,28.00
2019-04-06T04:25:19.415Z,29.97
2019-04-06T04:27:51.303Z,28.07
2019-04-06T04:30:32.228Z,26.23
2019-04-06T04:32:57.674Z,27.50
2019-04-06T04:35:29.581Z,32.13
2019-04-06T04:38:02.925Z,28.63
2019-04-06T04:40:34.779Z,27.93
2019-04-06T04:43:06.786Z,30.20
2019-04-06T04:45:39.151Z,32.10
2019-04-06T04:48:12.986Z,30.87
2019-04-06T04:50:45.110Z,29.37
2019-04-06T04:53:17.051Z,30.07
2019-04-06T04:55:49.543Z,31.37
2019-04-06T04:58:21.462Z,42.20
2019-04-06T05:00:53.537Z,39.23
2019-04-06T05:03:25.590Z,29.33
2019-04-06T05:05:58.650Z,30.10
2019-04-06T05:08:30.511Z,28.37
2019-04-06T05:11:24.009Z,29.73
2019-04-06T05:14:32.756Z,32.83
2019-04-06T05:17:05.114Z,27.83
2019-04-06T05:19:54.767Z,27.53
2019-04-06T05:22:26.899Z,28.77
2019-04-06T05:24:58.828Z,27.83
2019-04-06T05:27:31.559Z,29.40
2019-04-06T05:30:03.497Z,28.60
2019-04-06T05:32:37.114Z,28.03
2019-04-06T05:35:10.225Z,26.93
2019-04-06T05:37:42.685Z,30.10
2019-04-06T05:40:15.865Z,29.60
2019-04-06T05:42:48.272Z,28.23
2019-04-06T05:45:20.716Z,24.47
2019-04-06T05:47:52.992Z,27.43
2019-04-06T05:50:25.334Z,26.17
2019-04-06T05:52:58.071Z,24.63
2019-04-06T05:55:32.542Z,26.77
2019-04-06T05:58:09.855Z,24.23
2019-04-06T06:00:40.609Z,26.30
2019-04-06T06:03:22.144Z,25.40
2019-04-06T06:05:54.437Z,23.23
2019-04-06T06:08:33.175Z,28.17
2019-04-06T06:11:05.450Z,27.03
2019-04-06T06:13:39.444Z,23.33
2019-04-06T06:16:12.337Z,23.17
2019-04-06T06:18:44.550Z,24.37
2019-04-06T06:21:16.631Z,25.73
2019-04-06T06:23:48.938Z,24.97
2019-04-06T06:26:20.896Z,25.63
2019-04-06T06:28:52.809Z,25.07
2019-04-06T06:31:24.723Z,22.23
2019-04-06T06:33:58.677Z,24.10
2019-04-06T06:36:31.298Z,25.13
2019-04-06T06:39:05.524Z,23.60
2019-04-06T06:41:38.331Z,24.07
2019-04-06T06:44:10.618Z,22.07
2019-04-06T06:46:42.968Z,19.57
2019-04-06T06:49:15.472Z,25.17
2019-04-06T06:51:47.374Z,22.53
2019-04-06T06:54:19.322Z,24.07
2019-04-06T06:56:51.223Z,23.03
2019-04-06T06:59:23.657Z,25.30
2019-04-06T07:01:56.792Z,27.03
2019-04-06T07:04:28.779Z,27.40
2019-04-06T07:07:01.088Z,28.70
2019-04-06T07:09:33.114Z,28.20
2019-04-06T07:12:05.794Z,28.67
2019-04-06T07:14:37.677Z,27.67
2019-04-06T07:17:10.181Z,29.23
2019-04-06T07:19:42.036Z,29.90
2019-04-06T07:22:14.523Z,29.93
2019-04-06T07:24:47.539Z,29.47
2019-04-06T07:27:19.419Z,29.17
2019-04-06T07:29:51.469Z,26.37
2019-04-06T07:32:30.097Z,28.63
2019-04-06T07:35:03.379Z,29.10
2019-04-06T07:37:35.709Z,30.10
2019-04-06T07:40:08.947Z,27.00
2019-04-06T07:42:41.736Z,26.70
2019-04-06T07:45:14.415Z,30.97
2019-04-06T07:47:48.495Z,29.77
2019-04-06T07:50:22.106Z,27.50
2019-04-06T07:52:54.256Z,21.97
2019-04-06T07:55:27.523Z,20.17
2019-04-06T07:57:59.546Z,20.63
2019-04-06T08:00:32.033Z,22.50
2019-04-06T08:03:03.833Z,18.67
2019-04-06T08:05:36.538Z,18.20
2019-04-06T08:08:08.438Z,19.77
2019-04-06T08:10:40.675Z,19.90
2019-04-06T08:13:13.397Z,20.70
2019-04-06T08:15:46.356Z,23.23
2019-04-06T08:18:25.039Z,16.67
2019-04-06T08:20:58.131Z,14.90
2019-04-06T08:23:30.660Z,15.03
2019-04-06T08:26:02.667Z,17.10
2019-04-06T08:28:36.206Z,14.57
2019-04-06T08:31:09.878Z,16.70
2019-04-06T08:33:42.334Z,16.10
2019-04-06T08:36:15.351Z,14.53
2019-04-06T08:38:47.195Z,15.83
2019-04-06T08:41:19.117Z,13.83
2019-04-06T08:43:51.512Z,13.53
2019-04-06T08:46:27.055Z,15.43
2019-04-06T08:48:59.019Z,18.00
2019-04-06T08:51:31.256Z,13.50
2019-04-06T08:54:05.954Z,13.40
2019-04-06T08:56:37.834Z,14.23
2019-04-06T08:59:12.197Z,16.00
2019-04-06T09:01:43.175Z,16.47
2019-04-06T09:04:15.471Z,16.03
2019-04-06T09:06:47.326Z,14.57
2019-04-06T09:09:19.276Z,16.60
2019-04-06T09:11:51.220Z,12.20
2019-04-06T09:14:23.593Z,12.13
2019-04-06T09:16:55.594Z,13.00
2019-04-06T09:19:27.441Z,13.63
2019-04-06T09:21:59.318Z,13.10
2019-04-06T09:24:31.514Z,13.97
2019-04-06T09:27:03.353Z,13.53
2019-04-06T09:29:36.747Z,11.93
2019-04-06T09:32:09.120Z,11.57
2019-04-06T09:34:42.665Z,11.63
2019-04-06T09:37:15.661Z,9.87
2019-04-06T09:39:57.583Z,10.53
2019-04-06T09:42:29.951Z,10.50
2019-04-06T09:45:19.567Z,10.97
2019-04-06T09:48:07.627Z,9.20
2019-04-06T09:50:57.204Z,9.63
2019-04-06T09:54:05.041Z,8.93
2019-04-06T09:56:37.649Z,11.60
2019-04-06T09:59:36.780Z,9.63
2019-04-06T10:02:27.838Z,10.57
2019-04-06T10:05:27.811Z,10.90
2019-04-06T10:08:21.639Z,10.37
2019-04-06T10:11:12.616Z,10.07
2019-04-06T10:13:54.666Z,9.93
2019-04-06T10:16:42.835Z,11.10
2019-04-06T10:19:37.070Z,10.73
2019-04-06T10:22:28.421Z,11.83
2019-04-06T10:25:11.609Z,11.00
2019-04-06T10:27:57.284Z,9.80
2019-04-06T10:30:47.193Z,10.23
2019-04-06T10:33:46.728Z,10.43
2019-04-06T10:36:50.059Z,10.87
2019-04-06T10:39:28.867Z,11.03
2019-04-06T10:42:29.568Z,11.27
2019-04-06T10:45:32.814Z,10.03
2019-04-06T10:48:38.711Z,13.47
2019-04-06T10:51:35.439Z,12.33
2019-04-06T10:54:28.904Z,13.93
2019-04-06T10:57:18.963Z,9.97
2019-04-06T11:00:13.122Z,11.23
2019-04-06T11:03:08.163Z,12.57
2019-04-06T11:06:04.998Z,15.87
2019-04-06T11:08:52.024Z,12.43
2019-04-06T11:11:41.670Z,13.33
2019-04-06T11:14:31.565Z,10.37
2019-04-06T11:17:26.473Z,13.03
2019-04-06T11:20:23.190Z,10.33
2019-04-06T11:23:12.474Z,11.33
2019-04-06T11:26:12.227Z,11.77
2019-04-06T11:29:06.286Z,11.73
2019-04-06T11:31:53.515Z,13.10
2019-04-06T11:34:37.245Z,11.40
2019-04-06T11:37:40.078Z,12.03
2019-04-06T11:40:43.375Z,12.83
2019-04-06T11:43:52.695Z,12.27
2019-04-06T11:46:35.711Z,14.43
2019-04-06T11:49:26.576Z,12.60
2019-04-06T11:52:17.858Z,12.27
2019-04-06T11:55:11.646Z,11.67
2019-04-06T11:57:55.306Z,12.43
2019-04-06T12:00:45.406Z,10.63
2019-04-06T12:03:41.919Z,13.40
2019-04-06T12:06:36.742Z,13.83
2019-04-06T12:09:17.104Z,9.83
2019-04-06T12:12:01.783Z,11.13
2019-04-06T12:15:05.965Z,11.93
2019-04-06T12:17:56.660Z,14.37
2019-04-06T12:20:50.215Z,12.13
2019-04-06T12:23:41.775Z,9.77
2019-04-06T12:26:30.823Z,11.37
2019-04-06T12:29:34.683Z,10.47
2019-04-06T12:32:43.583Z,11.20
2019-04-06T12:35:37.040Z,10.77
2019-04-06T12:38:26.508Z,11.87
2019-04-06T12:41:16.097Z,9.27
2019-04-06T12:44:23.075Z,10.33
2019-04-06T12:47:19.853Z,10.07
2019-04-06T12:50:26.655Z,12.60
2019-04-06T12:53:28.178Z,11.60
2019-04-06T12:56:26.987Z,10.03
2019-04-06T12:59:35.387Z,11.30
2019-04-06T13:02:44.396Z,10.73
2019-04-06T13:05:35.389Z,11.23
2019-04-06T13:08:26.387Z,10.77
2019-04-06T13:11:16.097Z,11.37
2019-04-06T13:14:10.232Z,10.37
2019-04-06T13:17:03.035Z,10.87
2019-04-06T13:19:53.318Z,11.23
2019-04-06T13:22:46.878Z,8.90
2019-04-06T13:25:38.615Z,9.97
2019-04-06T13:28:33.720Z,10.30
2019-04-06T13:31:36.822Z,10.53
2019-04-06T13:34:26.566Z,9.70
2019-04-06T13:37:11.890Z,9.53
2019-04-06T13:40:03.674Z,10.33
2019-04-06T13:43:12.855Z,9.40
2019-04-06T13:46:13.685Z,9.40
2019-04-06T13:49:05.499Z,9.90
2019-04-06T13:51:54.366Z,9.77
2019-04-06T13:54:47.935Z,11.17
2019-04-06T13:57:35.812Z,10.13
2019-04-06T14:00:20.929Z,11.67
2019-04-06T14:03:01.257Z,11.67
2019-04-06T14:05:39.427Z,10.80
2019-04-06T14:08:25.974Z,9.80
2019-04-06T14:11:17.554Z,10.50
2019-04-06T14:14:00.553Z,12.00
2019-04-06T14:16:51.338Z,10.60
2019-04-06T14:19:47.900Z,11.53
2019-04-06T14:22:36.855Z,10.60
2019-04-06T14:25:34.086Z,13.47
2019-04-06T14:28:24.522Z,10.27
2019-04-06T14:31:28.427Z,12.57
2019-04-06T14:34:25.181Z,10.70
2019-04-06T14:37:28.472Z,11.13
2019-04-06T14:40:38.882Z,9.40
2019-04-06T14:43:23.224Z,9.63
2019-04-06T14:46:33.004Z,11.70
2019-04-06T14:49:33.091Z,11.10
2019-04-06T14:52:23.616Z,10.47
2019-04-06T14:55:21.579Z,9.17
2019-04-06T14:58:10.244Z,12.13
2019-04-06T15:00:52.365Z,10.50
2019-04-06T15:03:46.929Z,11.00
2019-04-06T15:06:39.184Z,11.07
2019-04-06T15:09:30.173Z,8.60
2019-04-06T15:12:14.855Z,9.57
2019-04-06T15:15:17.753Z,9.13
2019-04-06T15:17:59.356Z,9.60
2019-04-06T15:20:49.112Z,11.00
2019-04-06T15:23:36.753Z,12.23
2019-04-06T15:26:21.839Z,10.57
2019-04-06T15:29:05.136Z,10.47
2019-04-06T15:32:08.526Z,9.77
2019-04-06T15:34:58.298Z,10.23
2019-04-06T15:37:56.307Z,9.70
2019-04-06T15:40:43.995Z,10.10
2019-04-06T15:43:39.220Z,10.20
2019-04-06T15:46:45.770Z,10.27
2019-04-06T15:49:30.840Z,10.23
2019-04-06T15:52:30.638Z,10.63
2019-04-06T15:55:12.346Z,10.27
2019-04-06T15:58:10.483Z,9.13
2019-04-06T16:00:48.725Z,10.17
2019-04-06T16:04:01.622Z,10.07
2019-04-06T16:06:58.812Z,9.30
2019-04-06T16:09:53.201Z,9.20
2019-04-06T16:12:44.780Z,10.57
2019-04-06T16:15:47.988Z,8.73
2019-04-06T16:18:58.356Z,10.50
2019-04-06T16:21:49.449Z,10.13
2019-04-06T16:24:36.768Z,11.60
2019-04-06T16:27:26.833Z,12.03
2019-04-06T16:30:31.226Z,10.43
2019-04-06T16:33:34.722Z,11.47
2019-04-06T16:36:33.390Z,11.70
2019-04-06T16:39:24.470Z,10.83
2019-04-06T16:42:14.420Z,12.67
2019-04-06T16:45:09.128Z,11.07
2019-04-06T16:48:02.833Z,10.40
2019-04-06T16:50:53.491Z,11.90
2019-04-06T16:53:43.256Z,13.37
2019-04-06T16:56:31.517Z,12.50
2019-04-06T16:59:22.608Z,11.40
2019-04-06T17:02:02.302Z,11.00
2019-04-06T17:04:41.054Z,11.97
2019-04-06T17:07:42.130Z,11.23
2019-04-06T17:10:22.590Z,11.67
2019-04-06T17:13:12.441Z,11.00
2019-04-06T17:15:56.914Z,12.40
2019-04-06T17:18:48.491Z,9.93
2019-04-06T17:21:49.748Z,10.83
2019-04-06T17:24:39.095Z,12.10
2019-04-06T17:27:44.490Z,11.67
2019-04-06T17:30:35.957Z,11.67
2019-04-06T17:33:23.573Z,11.73
2019-04-06T17:36:24.490Z,11.20
2019-04-06T17:39:25.321Z,12.63
2019-04-06T17:42:17.000Z,12.27
2019-04-06T17:45:03.783Z,13.30
2019-04-06T17:47:44.279Z,11.97
2019-04-06T17:50:43.536Z,13.30
2019-04-06T17:53:28.243Z,11.40
2019-04-06T17:56:24.289Z,11.30
2019-04-06T17:59:28.814Z,12.40
2019-04-06T18:02:26.807Z,11.97
2019-04-06T18:05:08.942Z,12.23
2019-04-06T18:08:10.832Z,11.97
2019-04-06T18:11:01.842Z,11.70
2019-04-06T18:13:51.117Z,10.43
2019-04-06T18:16:25.961Z,10.90
2019-04-06T18:18:58.730Z,11.23
2019-04-06T18:21:31.112Z,10.27
2019-04-06T18:24:04.459Z,11.73
2019-04-06T18:26:37.522Z,10.47
2019-04-06T18:29:11.167Z,11.13
2019-04-06T18:31:53.112Z,14.37
2019-04-06T18:34:26.207Z,13.50
2019-04-06T18:37:23.526Z,15.83
2019-04-06T18:39:57.362Z,13.77
2019-04-06T18:42:32.205Z,12.20
2019-04-06T18:45:04.584Z,12.73
2019-04-06T18:47:37.082Z,14.63
2019-04-06T18:50:09.230Z,12.40
2019-04-06T18:52:42.068Z,10.90
2019-04-06T18:55:15.255Z,12.20
2019-04-06T18:57:47.894Z,11.67
2019-04-06T19:00:20.779Z,13.13
2019-04-06T19:02:52.996Z,10.60
2019-04-06T19:05:25.528Z,10.57
2019-04-06T19:07:57.630Z,10.73
2019-04-06T19:10:30.364Z,13.07
2019-04-06T19:13:04.384Z,9.80
2019-04-06T19:15:36.970Z,12.03
2019-04-06T19:18:09.236Z,11.33
2019-04-06T19:20:41.687Z,10.73
2019-04-06T19:23:17.471Z,11.13
2019-04-06T19:25:49.345Z,13.10
2019-04-06T19:28:22.155Z,11.93
2019-04-06T19:30:54.590Z,10.87
2019-04-06T19:33:27.450Z,11.63
2019-04-06T19:36:00.830Z,10.63
2019-04-06T19:38:34.740Z,12.67
2019-04-06T19:41:06.562Z,11.63
2019-04-06T19:43:38.955Z,12.43
2019-04-06T19:46:11.203Z,10.80
2019-04-06T19:48:43.669Z,12.33
2019-04-06T19:51:16.635Z,10.50
2019-04-06T19:53:48.943Z,11.80
2019-04-06T19:56:21.388Z,11.57
2019-04-06T19:58:54.746Z,11.00
2019-04-06T20:01:27.873Z,11.07
2019-04-06T20:04:01.194Z,10.73
2019-04-06T20:06:34.454Z,12.10
2019-04-06T20:09:08.646Z,13.33
2019-04-06T20:11:42.187Z,13.03
2019-04-06T20:14:15.223Z,11.00
2019-04-06T20:16:47.385Z,12.07
2019-04-06T20:19:22.556Z,13.37
2019-04-06T20:21:55.507Z,13.00
2019-04-06T20:24:28.410Z,13.97
2019-04-06T20:27:00.346Z,12.47
2019-04-06T20:29:32.300Z,13.50
2019-04-06T20:32:04.604Z,13.93
2019-04-06T20:34:38.126Z,16.90
2019-04-06T20:37:10.166Z,17.60
2019-04-06T20:39:42.630Z,12.33
2019-04-06T20:42:15.589Z,13.17
2019-04-06T20:44:47.471Z,13.77
2019-04-06T20:47:20.311Z,15.37
2019-04-06T20:49:52.691Z,13.77
2019-04-06T20:52:25.129Z,15.03
2019-04-06T20:54:58.101Z,15.03
2019-04-06T20:57:30.823Z,14.57
2019-04-06T21:00:02.850Z,18.07
2019-04-06T21:02:35.071Z,17.93
2019-04-06T21:05:07.974Z,16.27
2019-04-06T21:07:40.473Z,18.70
2019-04-06T21:10:13.658Z,19.43
2019-04-06T21:12:46.198Z,19.70
2019-04-06T21:15:21.089Z,17.70
2019-04-06T21:17:53.429Z,17.47
2019-04-06T21:20:25.820Z,15.57
2019-04-06T21:22:57.719Z,14.03
2019-04-06T21:25:31.043Z,14.67
2019-04-06T21:28:04.162Z,13.57
2019-04-06T21:30:36.911Z,15.07
2019-04-06T21:33:14.411Z,12.10
2019-04-06T21:35:47.341Z,9.80
2019-04-06T21:38:19.434Z,11.07
2019-04-06T21:40:51.914Z,12.30
2019-04-06T21:43:23.798Z,10.70
2019-04-06T21:45:56.610Z,9.17
2019-04-06T21:48:28.597Z,8.63
2019-04-06T21:51:00.583Z,10.17
2019-04-06T21:53:32.509Z,9.23
2019-04-06T21:56:07.578Z,9.13
2019-04-06T21:58:39.227Z,9.57
2019-04-06T22:01:13.582Z,7.97
2019-04-06T22:03:47.378Z,9.30
2019-04-06T22:06:19.413Z,7.77
2019-04-06T22:08:52.216Z,8.30
2019-04-06T22:11:24.162Z,8.03
2019-04-06T22:13:55.985Z,9.03
2019-04-06T22:16:27.974Z,6.80
2019-04-06T22:19:00.034Z,7.37
2019-04-06T22:21:38.495Z,7.63
2019-04-06T22:24:10.606Z,6.53
2019-04-06T22:26:43.095Z,6.77
2019-04-06T22:29:15.723Z,6.07
2019-04-06T22:31:48.000Z,5.93
2019-04-06T22:34:20.363Z,6.87
2019-04-06T22:36:52.829Z,8.03
2019-04-06T22:39:26.023Z,6.53
2019-04-06T22:41:58.323Z,7.67
2019-04-06T22:44:30.344Z,6.90
2019-04-06T22:47:02.872Z,6.37
2019-04-06T22:49:35.887Z,7.17
2019-04-06T22:52:07.929Z,7.70
2019-04-06T22:54:40.566Z,7.50
2019-04-06T22:57:13.535Z,7.10
2019-04-06T22:59:46.098Z,6.50
2019-04-06T23:02:18.272Z,7.67
2019-04-06T23:05:00.886Z,7.77
2019-04-06T23:07:32.789Z,7.20
2019-04-06T23:10:05.546Z,7.37
2019-04-06T23:12:37.412Z,6.93
2019-04-06T23:15:10.337Z,6.70
2019-04-06T23:17:42.313Z,6.50
2019-04-06T23:20:14.994Z,6.80
2019-04-06T23:22:46.929Z,6.13
2019-04-06T23:25:18.816Z,7.67
2019-04-06T23:27:50.736Z,6.43
2019-04-06T23:30:22.723Z,6.47
2019-04-06T23:32:54.502Z,6.47
2019-04-06T23:35:26.494Z,6.13
2019-04-06T23:37:58.721Z,5.00
2019-04-06T23:40:31.139Z,6.43
2019-04-06T23:43:04.130Z,5.53
2019-04-06T23:45:36.661Z,6.17
2019-04-06T23:48:13.741Z,6.00
2019-04-06T23:50:46.006Z,6.50
2019-04-06T23:53:17.776Z,5.63
2019-04-06T23:55:49.619Z,5.77
2019-04-06T23:58:21.501Z,7.90
